Terminal Aerodrome Forecast
Issued by NWS

Home | Current Version | Previous Version | Graphics & Text | Print | Product List | Glossary On
Versions: 1 2 3 4 5 6 7 8 9 10 11 12 13 14 15 16 17 18 19 20 21 22 23 24
000
FTUS43 KGRB 221100
TAFCWA
TAF
KCWA 221127Z 2212/2312 VRB03KT 3SM BR SCT002 OVC006
      TEMPO 2212/2214 1/2SM FG VV002
     FM221400 06005KT 6SM HZ SCT005 OVC012
      TEMPO 2214/2216 1SM BR BKN005
     FM221600 12005KT 6SM HZ OVC012
     FM221800 13005KT 6SM HZ OVC020
     FM222200 11004KT 6SM HZ BKN015 BKN030
     FM230200 VRB03KT 4SM BR BKN015
     FM230400 VRB03KT 1SM BR OVC007
     FM230700 VRB03KT 1/2SM FG VV004=

USA.gov is the U.S. government's official web portal to all federal, state and local government web resources and services.